createdAt,value
2023-02-06T00:03:29.143Z,100601.50
2023-02-06T00:08:31.280Z,100626.22
2023-02-06T00:13:36.834Z,100621.84
2023-02-06T00:18:38.881Z,100633.78
2023-02-06T00:23:41.679Z,100636.97
2023-02-06T00:28:44.183Z,100625.44
2023-02-06T00:33:46.354Z,100634.06
2023-02-06T00:38:48.439Z,100626.97
2023-02-06T00:43:50.566Z,100638.97
2023-02-06T00:48:52.837Z,100644.72
2023-02-06T00:53:55.145Z,100632.63
2023-02-06T00:58:57.187Z,100651.63
2023-02-06T01:03:59.351Z,100641.28
2023-02-06T01:09:01.461Z,100619.31
2023-02-06T01:14:03.845Z,100652.63
2023-02-06T01:19:05.997Z,100653.13
2023-02-06T01:24:08.205Z,100638.53
2023-02-06T01:29:10.306Z,100659.94
2023-02-06T01:34:12.645Z,100621.59
2023-02-06T01:39:14.758Z,100654.75
2023-02-06T01:44:24.721Z,100624.56
2023-02-06T01:49:39.097Z,100609.41
2023-02-06T01:54:42.771Z,100631.78
2023-02-06T01:59:48.851Z,100650.72
2023-02-06T02:04:51.112Z,100571.06
2023-02-06T02:09:53.635Z,100642.97
2023-02-06T02:14:56.056Z,100651.50
2023-02-06T02:20:48.864Z,100658.38
2023-02-06T02:26:15.318Z,100662.25
2023-02-06T02:31:27.525Z,100664.56
2023-02-06T02:36:45.034Z,100665.69
2023-02-06T02:42:14.617Z,100657.03
2023-02-06T02:47:19.239Z,100655.97
2023-02-06T02:52:21.404Z,100654.16
2023-02-06T02:57:28.981Z,100660.66
2023-02-06T03:02:35.682Z,100661.94
2023-02-06T03:07:51.586Z,100673.00
2023-02-06T03:13:19.370Z,100674.56
2023-02-06T03:19:00.845Z,100674.03
2023-02-06T03:24:07.266Z,100673.53
2023-02-06T03:29:11.509Z,100681.97
2023-02-06T03:34:16.352Z,100674.31
2023-02-06T03:39:18.614Z,100654.16
2023-02-06T03:44:25.288Z,100670.63
2023-02-06T03:49:29.747Z,100666.94
2023-02-06T03:54:32.902Z,100664.91
2023-02-06T03:59:35.250Z,100650.00
2023-02-06T04:04:40.769Z,100651.91
2023-02-06T04:09:43.020Z,100659.56
2023-02-06T04:14:45.433Z,100658.31
2023-02-06T04:19:47.558Z,100640.13
2023-02-06T04:24:50.118Z,100658.06
2023-02-06T04:29:52.288Z,100657.19
2023-02-06T04:34:54.379Z,100660.88
2023-02-06T04:39:56.582Z,100659.59
2023-02-06T04:44:58.722Z,100660.75
2023-02-06T04:50:00.882Z,100670.31
2023-02-06T04:55:03.049Z,100670.31
2023-02-06T05:00:07.243Z,100644.97
2023-02-06T05:05:09.810Z,100676.50
2023-02-06T05:10:12.025Z,100652.53
2023-02-06T05:15:15.071Z,100647.19
2023-02-06T05:20:17.385Z,100621.31
2023-02-06T05:25:19.667Z,100680.16
2023-02-06T05:30:21.927Z,100647.28
2023-02-06T05:35:24.506Z,100663.88
2023-02-06T05:40:27.603Z,100680.81
2023-02-06T05:45:29.813Z,100683.25
2023-02-06T05:50:32.098Z,100671.38
2023-02-06T05:55:34.594Z,100647.19
2023-02-06T06:00:36.953Z,100680.44
2023-02-06T06:05:39.242Z,100680.22
2023-02-06T06:10:41.381Z,100689.66
2023-02-06T06:15:43.784Z,100643.56
2023-02-06T06:20:46.251Z,100681.53
2023-02-06T06:25:48.768Z,100689.19
2023-02-06T06:30:51.126Z,100722.97
2023-02-06T06:35:53.293Z,100691.88
2023-02-06T06:40:57.967Z,100698.63
2023-02-06T06:46:01.469Z,100694.31
2023-02-06T06:51:04.010Z,100713.44
2023-02-06T06:56:07.584Z,100717.88
2023-02-06T07:01:09.879Z,100704.75
2023-02-06T07:06:12.314Z,100692.13
2023-02-06T07:11:15.787Z,100699.41
2023-02-06T07:16:18.163Z,100709.22
2023-02-06T07:21:20.409Z,100718.25
2023-02-06T07:26:22.563Z,100707.19
2023-02-06T07:31:24.880Z,100692.91
2023-02-06T07:36:27.182Z,100684.41
2023-02-06T07:41:29.282Z,100700.19
2023-02-06T07:46:33.082Z,100720.59
2023-02-06T07:51:35.273Z,100720.97
2023-02-06T07:56:39.797Z,100687.47
2023-02-06T08:01:41.914Z,100714.44
2023-02-06T08:06:44.596Z,100729.13
2023-02-06T08:11:46.702Z,100716.34
2023-02-06T08:16:52.225Z,100696.38
2023-02-06T08:21:54.360Z,100698.63
2023-02-06T08:26:56.632Z,100690.13
2023-02-06T08:31:59.540Z,100725.16
2023-02-06T08:37:01.655Z,100722.09
2023-02-06T08:42:04.424Z,100723.97
2023-02-06T08:47:10.280Z,100723.44
2023-02-06T08:52:12.828Z,100700.00
2023-02-06T08:57:15.139Z,100732.25
2023-02-06T09:02:17.294Z,100720.78
2023-02-06T09:07:19.475Z,100723.94
2023-02-06T09:12:21.931Z,100714.75
2023-02-06T09:17:24.001Z,100678.28
2023-02-06T09:22:26.542Z,100723.44
2023-02-06T09:27:28.636Z,100725.06
2023-02-06T09:32:30.840Z,100725.19
2023-02-06T09:37:33.271Z,100726.97
2023-02-06T09:42:37.995Z,100727.22
2023-02-06T09:47:45.746Z,100721.47
2023-02-06T09:53:18.829Z,100728.50
2023-02-06T09:58:33.240Z,100727.69
2023-02-06T10:03:54.402Z,100732.94
2023-02-06T10:09:17.332Z,100739.84
2023-02-06T10:14:46.684Z,100685.94
2023-02-06T10:19:53.346Z,100702.53
2023-02-06T10:25:17.008Z,100723.44
2023-02-06T10:30:36.284Z,100703.00
2023-02-06T10:35:47.587Z,100728.34
2023-02-06T10:40:53.569Z,100709.25
2023-02-06T10:46:20.158Z,100716.09
2023-02-06T10:51:37.970Z,100707.91
2023-02-06T10:56:46.390Z,100681.66
2023-02-06T11:01:50.666Z,100680.00
2023-02-06T11:06:58.261Z,100670.06
2023-02-06T11:12:01.188Z,100688.81
2023-02-06T11:17:03.833Z,100709.81
2023-02-06T11:22:17.558Z,100705.72
2023-02-06T11:27:23.533Z,100698.59
2023-02-06T11:32:58.984Z,100681.00
2023-02-06T11:38:19.347Z,100713.75
2023-02-06T11:43:24.847Z,100708.41
2023-02-06T11:48:36.525Z,100695.34
2023-02-06T11:53:39.993Z,100716.34
2023-02-06T11:58:43.036Z,100705.78
2023-02-06T12:03:50.997Z,100716.09
2023-02-06T12:08:55.345Z,100701.28
2023-02-06T12:14:14.830Z,100714.66
2023-02-06T12:19:22.028Z,100705.19
2023-02-06T12:24:38.658Z,100699.44
2023-02-06T12:30:37.200Z,100707.34
2023-02-06T12:36:17.909Z,100699.78
2023-02-06T12:41:39.368Z,100688.69
2023-02-06T12:46:43.083Z,100660.47
2023-02-06T12:52:15.466Z,100694.47
2023-02-06T12:57:22.084Z,100706.06
2023-02-06T13:02:49.158Z,100708.63
2023-02-06T13:07:52.468Z,100665.50
2023-02-06T13:12:59.395Z,100711.09
2023-02-06T13:18:01.697Z,100715.19
2023-02-06T13:23:12.783Z,100709.28
2023-02-06T13:28:21.806Z,100713.63
2023-02-06T13:33:25.073Z,100708.94
2023-02-06T13:38:37.874Z,100720.03
2023-02-06T13:43:42.936Z,100704.16
2023-02-06T13:48:57.284Z,100722.78
2023-02-06T13:54:24.473Z,100741.25
2023-02-06T13:59:38.146Z,100730.06
2023-02-06T14:04:41.831Z,100744.09
2023-02-06T14:10:11.585Z,100734.78
2023-02-06T14:15:26.757Z,100740.75
2023-02-06T14:20:38.073Z,100734.78
2023-02-06T14:26:10.740Z,100744.22
2023-02-06T14:31:23.081Z,100737.94
2023-02-06T14:36:30.800Z,100732.63
2023-02-06T14:41:35.149Z,100736.72
2023-02-06T14:46:40.637Z,100721.44
2023-02-06T14:51:49.925Z,100751.13
2023-02-06T14:57:03.176Z,100755.59
2023-02-06T15:02:15.247Z,100722.59
2023-02-06T15:07:24.684Z,100760.22
2023-02-06T15:12:29.305Z,100747.47
2023-02-06T15:17:32.481Z,100749.38
2023-02-06T15:22:35.764Z,100752.94
2023-02-06T15:27:38.974Z,100756.25
2023-02-06T15:32:41.291Z,100762.03
2023-02-06T15:37:43.887Z,100732.47
2023-02-06T15:42:48.009Z,100743.16
2023-02-06T15:47:52.068Z,100751.19
2023-02-06T15:52:55.696Z,100746.72
2023-02-06T15:57:59.958Z,100762.44
2023-02-06T16:03:08.264Z,100754.41
2023-02-06T16:08:18.003Z,100739.19
2023-02-06T16:13:27.875Z,100697.16
2023-02-06T16:18:32.982Z,100709.38
2023-02-06T16:24:04.751Z,100755.78
2023-02-06T16:29:14.442Z,100769.81
2023-02-06T16:34:20.894Z,100761.19
2023-02-06T16:39:23.673Z,100762.81
2023-02-06T16:44:42.999Z,100762.44
2023-02-06T16:49:50.108Z,100775.50
2023-02-06T16:54:52.418Z,100782.78
2023-02-06T16:59:58.790Z,100777.78
2023-02-06T17:05:02.295Z,100789.88
2023-02-06T17:10:07.940Z,100798.09
2023-02-06T17:15:12.210Z,100806.22
2023-02-06T17:20:35.543Z,100815.78
2023-02-06T17:25:46.579Z,100795.78
2023-02-06T17:30:51.086Z,100827.41
2023-02-06T17:35:54.127Z,100852.44
2023-02-06T17:40:57.893Z,100815.16
2023-02-06T17:46:03.906Z,100843.09
2023-02-06T17:51:09.229Z,100862.91
2023-02-06T17:56:17.464Z,100861.88
2023-02-06T18:01:24.651Z,100860.97
2023-02-06T18:06:28.685Z,100863.41
2023-02-06T18:11:32.018Z,100843.22
2023-02-06T18:16:34.552Z,100850.88
2023-02-06T18:21:36.922Z,100893.94
2023-02-06T18:26:39.157Z,100888.66
2023-02-06T18:31:42.070Z,100882.31
2023-02-06T18:36:44.507Z,100854.22
2023-02-06T18:42:06.550Z,100867.75
2023-02-06T18:47:09.887Z,100894.91
2023-02-06T18:52:13.311Z,100923.38
2023-02-06T18:57:15.681Z,100926.69
2023-02-06T19:02:17.955Z,100935.25
2023-02-06T19:07:20.310Z,100919.41
2023-02-06T19:12:22.609Z,100919.81
2023-02-06T19:17:26.805Z,100902.56
2023-02-06T19:22:28.987Z,100918.81
2023-02-06T19:27:31.367Z,100919.56
2023-02-06T19:32:34.094Z,100905.75
2023-02-06T19:37:38.102Z,100918.91
2023-02-06T19:42:43.156Z,100912.91
2023-02-06T19:47:47.304Z,100941.75
2023-02-06T19:52:49.727Z,100905.84
2023-02-06T19:57:51.875Z,100936.09
2023-02-06T20:02:56.763Z,100920.56
2023-02-06T20:07:59.036Z,100967.03
2023-02-06T20:13:01.299Z,100960.88
2023-02-06T20:18:03.532Z,100963.97
2023-02-06T20:23:08.343Z,100961.38
2023-02-06T20:28:10.494Z,100939.75
2023-02-06T20:33:12.754Z,100954.09
2023-02-06T20:38:14.866Z,100966.72
2023-02-06T20:43:17.012Z,100985.88
2023-02-06T20:48:19.144Z,100939.97
2023-02-06T20:53:21.387Z,100980.09
2023-02-06T20:58:23.544Z,100968.06
2023-02-06T21:03:26.791Z,100971.00
2023-02-06T21:08:29.112Z,100982.25
2023-02-06T21:13:31.337Z,100965.75
2023-02-06T21:18:33.576Z,100990.94
2023-02-06T21:23:37.620Z,100962.28
2023-02-06T21:28:40.872Z,100997.31
2023-02-06T21:33:45.404Z,101005.59
2023-02-06T21:38:47.588Z,100970.97
2023-02-06T21:43:49.772Z,100996.00
2023-02-06T21:48:53.450Z,100984.22
2023-02-06T21:53:56.717Z,101012.19
2023-02-06T21:58:58.947Z,100983.41
2023-02-06T22:04:02.277Z,101023.25
2023-02-06T22:09:07.849Z,101031.06
2023-02-06T22:14:16.373Z,100975.84
2023-02-06T22:19:18.590Z,101026.38
2023-02-06T22:24:20.749Z,101018.69
2023-02-06T22:29:23.004Z,101041.13
2023-02-06T22:34:25.202Z,101010.41
2023-02-06T22:39:27.639Z,101042.38
2023-02-06T22:44:29.840Z,101043.78
2023-02-06T22:49:32.066Z,101051.03
2023-02-06T22:54:34.260Z,100998.47
2023-02-06T22:59:36.443Z,101058.44
2023-02-06T23:04:40.861Z,101031.44
2023-02-06T23:09:43.158Z,101020.16
2023-02-06T23:14:45.316Z,101055.84
2023-02-06T23:19:47.483Z,101031.03
2023-02-06T23:24:50.946Z,101029.13
2023-02-06T23:29:53.111Z,101041.38
2023-02-06T23:34:56.358Z,101040.00
2023-02-06T23:39:59.071Z,101054.16
2023-02-06T23:45:03.677Z,101003.81
2023-02-06T23:50:11.234Z,101044.53
2023-02-06T23:55:13.457Z,101079.31
